Data Viewer
| City | State | Eastern Time | Source | Temp | DewPt | RH | BP | 5 Min Precip | Wind Speed | Wind Dir | 5 Min Wind Max | 5 Min Wind Max Dir |
|---|---|---|---|---|---|---|---|---|---|---|---|---|
| Islip | NY | 2026-05-04 22:15 | ASOS | 55 | 48 | 77 | 29.88 | 14 | SW | |||
| Islip | NY | 2026-05-05 13:56 | ASOS | 65 | 52 | 63 | 29.86 | 15 | SSW | |||
| Islip | NY | 2026-05-05 14:25 | ASOS | 66 | 52 | 60 | 29.85 | 16 | S | |||
| Islip | NY | 2026-05-05 14:20 | ASOS | 64 | 52 | 64 | 29.85 | 16 | S | |||
| Islip | NY | 2026-05-05 14:15 | ASOS | 64 | 52 | 64 | 29.85 | 16 | S | |||
| Islip | NY | 2026-05-05 14:10 | ASOS | 66 | 52 | 60 | 29.86 | 15 | SSW | |||
| Islip | NY | 2026-05-05 14:05 | ASOS | 66 | 54 | 64 | 29.86 | 13 | SSW | |||
| Islip | NY | 2026-05-05 14:00 | ASOS | 64 | 54 | 68 | 29.86 | 10 | SSW | |||
| Islip | NY | 2026-05-05 13:55 | ASOS | 64 | 52 | 64 | 29.86 | 15 | SSW | |||
| Islip | NY | 2026-05-05 14:35 | ASOS | 66 | 52 | 60 | 29.85 | 16 | S | |||
| Islip | NY | 2026-05-05 13:50 | ASOS | 64 | 54 | 68 | 29.86 | 15 | S | |||
| Islip | NY | 2026-05-05 13:45 | ASOS | 66 | 54 | 64 | 29.86 | 14 | S | |||
| Islip | NY | 2026-05-05 13:40 | ASOS | 64 | 54 | 68 | 29.86 | 12 | SSW | |||
| Islip | NY | 2026-05-05 13:35 | ASOS | 64 | 54 | 68 | 29.86 | 15 | S | |||
| Islip | NY | 2026-05-05 13:30 | ASOS | 64 | 52 | 64 | 29.86 | 13 | S | |||
| Islip | NY | 2026-05-05 13:25 | ASOS | 64 | 52 | 64 | 29.86 | 16 | S | |||
| Islip | NY | 2026-05-05 14:30 | ASOS | 64 | 52 | 64 | 29.85 | 14 | SSW | |||
| Islip | NY | 2026-05-05 14:40 | ASOS | 66 | 52 | 60 | 29.85 | 17 | SSW | |||
| Islip | NY | 2026-05-05 13:15 | ASOS | 64 | 54 | 68 | 29.87 | 13 | SSW | |||
| Islip | NY | 2026-05-05 15:20 | ASOS | 64 | 52 | 64 | 29.83 | 16 | S | |||
| Islip | NY | 2026-05-05 15:50 | ASOS | 64 | 52 | 64 | 29.82 | 17 | S | |||
| Islip | NY | 2026-05-05 15:45 | ASOS | 64 | 52 | 64 | 29.82 | 17 | S | |||
| Islip | NY | 2026-05-05 15:40 | ASOS | 64 | 52 | 64 | 29.82 | 13 | S | |||
| Islip | NY | 2026-05-05 15:35 | ASOS | 64 | 52 | 64 | 29.82 | 15 | S | |||
| Islip | NY | 2026-05-05 15:30 | ASOS | 64 | 52 | 64 | 29.83 | 16 | S | |||
| Islip | NY | 2026-05-05 15:25 | ASOS | 64 | 52 | 64 | 29.83 | 16 | S | |||
| Islip | NY | 2026-05-05 15:15 | ASOS | 64 | 52 | 64 | 29.83 | 12 | S | |||
| Islip | NY | 2026-05-05 14:45 | ASOS | 66 | 52 | 60 | 29.85 | 16 | S | |||
| Islip | NY | 2026-05-05 15:10 | ASOS | 64 | 52 | 64 | 29.84 | 10 | S | |||
| Islip | NY | 2026-05-05 15:05 | ASOS | 66 | 52 | 60 | 29.84 | 13 | SSW | |||
| Islip | NY | 2026-05-05 15:00 | ASOS | 64 | 52 | 64 | 29.84 | 18 | SSW | |||
| Islip | NY | 2026-05-05 14:56 | ASOS | 65 | 52 | 63 | 29.85 | 16 | SSW | |||
| Islip | NY | 2026-05-05 14:55 | ASOS | 64 | 52 | 64 | 29.85 | 17 | SSW | |||
| Islip | NY | 2026-05-05 14:50 | ASOS | 64 | 52 | 64 | 29.85 | 17 | S | |||
| Islip | NY | 2026-05-05 13:20 | ASOS | 64 | 54 | 68 | 29.87 | 13 | SSW | |||
| Islip | NY | 2026-05-05 13:10 | ASOS | 64 | 54 | 68 | 29.86 | 12 | S | |||
| Islip | NY | 2026-05-05 15:56 | ASOS | 63 | 51 | 65 | 29.82 | 16 | S | |||
| Islip | NY | 2026-05-05 11:00 | ASOS | 64 | 52 | 64 | 29.90 | 16 | SSW | |||
| Islip | NY | 2026-05-05 11:30 | ASOS | 64 | 54 | 68 | 29.89 | 13 | S | |||
| Islip | NY | 2026-05-05 11:25 | ASOS | 64 | 54 | 68 | 29.89 | 12 | S | |||
| Islip | NY | 2026-05-05 11:20 | ASOS | 64 | 54 | 68 | 29.89 | 14 | S | |||
| Islip | NY | 2026-05-05 11:15 | ASOS | 64 | 52 | 64 | 29.89 | 13 | S | |||
| Islip | NY | 2026-05-05 11:10 | ASOS | 64 | 54 | 68 | 29.90 | 14 | S | |||
| Islip | NY | 2026-05-05 11:05 | ASOS | 64 | 52 | 64 | 29.89 | 14 | S | |||
| Islip | NY | 2026-05-05 10:56 | ASOS | 65 | 53 | 65 | 29.89 | 15 | SW | |||
| Islip | NY | 2026-05-05 11:40 | ASOS | 64 | 52 | 64 | 29.88 | 12 | S | |||
| Islip | NY | 2026-05-05 10:55 | ASOS | 64 | 54 | 68 | 29.90 | 15 | SW | |||
| Islip | NY | 2026-05-05 10:50 | ASOS | 64 | 52 | 64 | 29.89 | 12 | SSW | |||
| Islip | NY | 2026-05-05 10:45 | ASOS | 64 | 54 | 68 | 29.89 | 13 | SSW | |||
| Islip | NY | 2026-05-05 10:40 | ASOS | 64 | 52 | 64 | 29.89 | 13 | SSW | |||
| Islip | NY | 2026-05-05 10:35 | ASOS | 64 | 54 | 68 | 29.89 | 16 | S | |||
| Islip | NY | 2026-05-05 10:30 | ASOS | 63 | 54 | 72 | 29.88 | 14 | S | |||
| Islip | NY | 2026-05-05 11:35 | ASOS | 64 | 52 | 64 | 29.88 | 14 | SSW | |||
| Islip | NY | 2026-05-05 11:45 | ASOS | 64 | 54 | 68 | 29.88 | 10 | SSW | |||
| Islip | NY | 2026-05-05 13:05 | ASOS | 64 | 54 | 68 | 29.86 | 13 | S | |||
| Islip | NY | 2026-05-05 12:30 | ASOS | 64 | 52 | 64 | 29.87 | 12 | SSW | |||
| Islip | NY | 2026-05-05 13:00 | ASOS | 64 | 54 | 68 | 29.86 | 13 | S | |||
| Islip | NY | 2026-05-05 12:56 | ASOS | 65 | 53 | 65 | 29.86 | 14 | S | |||
| Islip | NY | 2026-05-05 12:50 | ASOS | 63 | 54 | 72 | 29.86 | 12 | S | |||
| Islip | NY | 2026-05-05 12:45 | ASOS | 64 | 54 | 68 | 29.87 | 14 | S | |||
| Islip | NY | 2026-05-05 12:40 | ASOS | 64 | 54 | 68 | 29.87 | 12 | S | |||
| Islip | NY | 2026-05-05 12:35 | ASOS | 64 | 54 | 68 | 29.87 | 13 | SSE | |||
| Islip | NY | 2026-05-05 12:25 | ASOS | 64 | 54 | 68 | 29.87 | 15 | S | |||
| Islip | NY | 2026-05-05 11:50 | ASOS | 64 | 54 | 68 | 29.88 | 10 | S | |||
| Islip | NY | 2026-05-05 12:20 | ASOS | 64 | 54 | 68 | 29.88 | 12 | S | |||
| Islip | NY | 2026-05-05 12:15 | ASOS | 64 | 54 | 68 | 29.88 | 13 | S | |||
| Islip | NY | 2026-05-05 12:10 | ASOS | 63 | 54 | 72 | 29.88 | 14 | S | |||
| Islip | NY | 2026-05-05 12:05 | ASOS | 64 | 54 | 68 | 29.88 | 16 | SSE | |||
| Islip | NY | 2026-05-05 12:00 | ASOS | 64 | 54 | 68 | 29.88 | 14 | S | |||
| Islip | NY | 2026-05-05 11:56 | ASOS | 65 | 53 | 65 | 29.88 | 12 | SSE | |||
| Islip | NY | 2026-05-05 11:55 | ASOS | 64 | 54 | 68 | 29.88 | 12 | SSE | |||
| Islip | NY | 2026-05-05 15:55 | ASOS | 63 | 52 | 68 | 29.82 | 18 | S | |||
| Islip | NY | 2026-05-05 16:00 | ASOS | 64 | 52 | 64 | 29.82 | 16 | SSW | |||
| Islip | NY | 2026-05-05 10:20 | ASOS | 63 | 54 | 72 | 29.88 | 12 | S | |||
| Islip | NY | 2026-05-05 19:56 | ASOS | 61 | 51 | 70 | 29.85 | 20 | SSW | |||
| Islip | NY | 2026-05-05 20:25 | ASOS | 61 | 52 | 72 | 29.86 | 22 | SSW | |||
| Islip | NY | 2026-05-05 20:20 | ASOS | 61 | 52 | 72 | 29.85 | 21 | SSW | |||
| Islip | NY | 2026-05-05 20:15 | ASOS | 61 | 52 | 72 | 29.85 | 26 | SSW | |||
| Islip | NY | 2026-05-05 20:10 | ASOS | 61 | 52 | 72 | 29.85 | 18 | SSW | |||
| Islip | NY | 2026-05-05 20:05 | ASOS | 61 | 52 | 72 | 29.85 | 18 | SSW | |||
| Islip | NY | 2026-05-05 20:00 | ASOS | 61 | 52 | 72 | 29.85 | 23 | SSW | |||
| Islip | NY | 2026-05-05 19:50 | ASOS | 61 | 52 | 72 | 29.84 | 25 | SSW | |||
| Islip | NY | 2026-05-05 20:35 | ASOS | 61 | 52 | 72 | 29.86 | 17 | SSW | |||
| Islip | NY | 2026-05-05 19:45 | ASOS | 61 | 52 | 72 | 29.84 | 24 | SSW | |||
| Islip | NY | 2026-05-05 19:40 | ASOS | 61 | 52 | 72 | 29.83 | 25 | SSW | |||
| Islip | NY | 2026-05-05 19:30 | ASOS | 61 | 52 | 72 | 29.83 | 22 | SSW | |||
| Islip | NY | 2026-05-05 19:25 | ASOS | 61 | 52 | 72 | 29.83 | 23 | SSW | |||
| Islip | NY | 2026-05-05 19:20 | ASOS | 61 | 52 | 72 | 29.83 | 23 | SSW | |||
| Islip | NY | 2026-05-05 19:15 | ASOS | 61 | 52 | 72 | 29.82 | 23 | SSW | |||
| Islip | NY | 2026-05-05 20:30 | ASOS | 61 | 52 | 72 | 29.86 | 18 | SSW | |||
| Islip | NY | 2026-05-05 20:40 | ASOS | 61 | 52 | 72 | 29.86 | 17 | SSW | |||
| Islip | NY | 2026-05-05 19:05 | ASOS | 63 | 52 | 68 | 29.82 | 20 | SSW | |||
| Islip | NY | 2026-05-05 21:25 | ASOS | 61 | 52 | 72 | 29.88 | 15 | SSW | |||
| Islip | NY | 2026-05-05 21:56 | ASOS | 59 | 52 | 78 | 29.89 | 14 | SSW | |||
| Islip | NY | 2026-05-05 21:55 | ASOS | 59 | 52 | 77 | 29.89 | 15 | SSW | |||
| Islip | NY | 2026-05-05 21:50 | ASOS | 59 | 52 | 77 | 29.89 | 20 | SSW | |||
| Islip | NY | 2026-05-05 21:45 | ASOS | 61 | 52 | 72 | 29.88 | 20 | SSW | |||
| Islip | NY | 2026-05-05 21:40 | ASOS | 61 | 52 | 72 | 29.88 | 17 | SSW | |||
| Islip | NY | 2026-05-05 21:30 | ASOS | 61 | 52 | 72 | 29.88 | 14 | SSW | |||
| Islip | NY | 2026-05-05 21:20 | ASOS | 61 | 52 | 72 | 29.88 | 21 | SSW | |||
| Islip | NY | 2026-05-05 20:45 | ASOS | 61 | 52 | 72 | 29.86 | 20 | SSW | |||
| Islip | NY | 2026-05-05 21:15 | ASOS | 61 | 52 | 72 | 29.87 | 20 | SSW | |||
| Islip | NY | 2026-05-05 21:10 | ASOS | 61 | 52 | 72 | 29.87 | 20 | SSW | |||
| Islip | NY | 2026-05-05 21:05 | ASOS | 61 | 52 | 72 | 29.87 | 20 | SSW | |||
| Islip | NY | 2026-05-05 21:00 | ASOS | 61 | 52 | 72 | 29.87 | 25 | SSW | |||
| Islip | NY | 2026-05-05 20:56 | ASOS | 61 | 51 | 70 | 29.87 | 22 | SSW | |||
| Islip | NY | 2026-05-05 20:55 | ASOS | 61 | 52 | 72 | 29.87 | 24 | SSW | |||
| Islip | NY | 2026-05-05 20:50 | ASOS | 61 | 52 | 72 | 29.86 | 22 | SW | |||
| Islip | NY | 2026-05-05 19:10 | ASOS | 61 | 52 | 72 | 29.82 | 22 | SSW | |||
| Islip | NY | 2026-05-05 19:00 | ASOS | 63 | 52 | 68 | 29.83 | 25 | SSW | |||
| Islip | NY | 2026-05-05 16:05 | ASOS | 64 | 52 | 64 | 29.81 | 14 | SSW | |||
| Islip | NY | 2026-05-05 16:45 | ASOS | 64 | 52 | 64 | 29.81 | 17 | SSW | |||
| Islip | NY | 2026-05-05 17:15 | ASOS | 64 | 52 | 64 | 29.80 | 17 | SSW | |||
| Islip | NY | 2026-05-05 17:10 | ASOS | 64 | 52 | 64 | 29.80 | 16 | SSW | |||
| Islip | NY | 2026-05-05 17:05 | ASOS | 64 | 52 | 64 | 29.80 | 18 | SSW | |||
| Islip | NY | 2026-05-05 17:00 | ASOS | 64 | 52 | 64 | 29.80 | 14 | SSW | |||
| Islip | NY | 2026-05-05 16:56 | ASOS | 64 | 51 | 63 | 29.80 | 21 | SSW | |||
| Islip | NY | 2026-05-05 16:50 | ASOS | 64 | 52 | 64 | 29.80 | 16 | SSW | |||
| Islip | NY | 2026-05-05 16:40 | ASOS | 64 | 52 | 64 | 29.81 | 18 | SSW | |||
| Islip | NY | 2026-05-05 17:25 | ASOS | 64 | 52 | 64 | 29.80 | 21 | SSW | |||
| Islip | NY | 2026-05-05 16:35 | ASOS | 64 | 52 | 64 | 29.80 | 15 | S | |||
| Islip | NY | 2026-05-05 16:30 | ASOS | 64 | 52 | 64 | 29.81 | 16 | SSW | |||
| Islip | NY | 2026-05-05 16:25 | ASOS | 66 | 52 | 60 | 29.81 | 13 | S | |||
| Islip | NY | 2026-05-05 16:20 | ASOS | 64 | 52 | 64 | 29.81 | 12 | SSW | |||
| Islip | NY | 2026-05-05 16:15 | ASOS | 64 | 52 | 64 | 29.81 | 17 | SSW | |||
| Islip | NY | 2026-05-05 16:10 | ASOS | 64 | 52 | 64 | 29.81 | 18 | SSW | |||
| Islip | NY | 2026-05-05 17:20 | ASOS | 64 | 52 | 64 | 29.80 | 15 | SSW | |||
| Islip | NY | 2026-05-05 17:30 | ASOS | 64 | 52 | 64 | 29.81 | 17 | SSW | |||
| Islip | NY | 2026-05-05 18:56 | ASOS | 62 | 51 | 67 | 29.83 | 21 | SSW | |||
| Islip | NY | 2026-05-05 18:20 | ASOS | 63 | 52 | 68 | 29.82 | 20 | SSW | |||
| Islip | NY | 2026-05-05 18:55 | ASOS | 63 | 52 | 68 | 29.82 | 20 | SSW | |||
| Islip | NY | 2026-05-05 18:45 | ASOS | 63 | 52 | 68 | 29.82 | 18 | SSW | |||
| Islip | NY | 2026-05-05 18:40 | ASOS | 63 | 52 | 68 | 29.82 | 25 | SSW | |||
| Islip | NY | 2026-05-05 18:35 | ASOS | 63 | 52 | 68 | 29.82 | 23 | SSW | |||
| Islip | NY | 2026-05-05 18:30 | ASOS | 63 | 52 | 68 | 29.82 | 21 | SSW | |||
| Islip | NY | 2026-05-05 18:25 | ASOS | 63 | 52 | 68 | 29.82 | 20 | SSW | |||
| Islip | NY | 2026-05-05 18:15 | ASOS | 63 | 52 | 68 | 29.81 | 20 | SSW | |||
| Islip | NY | 2026-05-05 17:35 | ASOS | 64 | 52 | 64 | 29.81 | 18 | SSW | |||
| Islip | NY | 2026-05-05 18:10 | ASOS | 63 | 52 | 68 | 29.82 | 18 | SSW | |||
| Islip | NY | 2026-05-05 18:05 | ASOS | 63 | 52 | 68 | 29.82 | 23 | SSW | |||
| Islip | NY | 2026-05-05 18:00 | ASOS | 63 | 52 | 68 | 29.82 | 22 | SSW | |||
| Islip | NY | 2026-05-05 17:56 | ASOS | 63 | 51 | 65 | 29.81 | 21 | SSW | |||
| Islip | NY | 2026-05-05 17:50 | ASOS | 63 | 52 | 68 | 29.81 | 22 | SSW | |||
| Islip | NY | 2026-05-05 17:45 | ASOS | 64 | 52 | 64 | 29.81 | 20 | SSW | |||
| Islip | NY | 2026-05-05 17:40 | ASOS | 63 | 52 | 68 | 29.81 | 20 | SSW | |||
| Islip | NY | 2026-05-05 10:25 | ASOS | 63 | 54 | 72 | 29.88 | 13 | S | |||
| Islip | NY | 2026-05-05 10:15 | ASOS | 63 | 54 | 72 | 29.88 | 12 | S | |||
| Islip | NY | 2026-05-04 22:20 | ASOS | 55 | 48 | 77 | 29.88 | 14 | SW | |||
| Islip | NY | 2026-05-05 02:10 | ASOS | 55 | 50 | 82 | 29.86 | 14 | SSW | |||
| Islip | NY | 2026-05-05 02:40 | ASOS | 55 | 50 | 82 | 29.85 | 13 | SSW | |||
| Islip | NY | 2026-05-05 02:35 | ASOS | 54 | 50 | 88 | 29.85 | 10 | SSW | |||
| Islip | NY | 2026-05-05 02:30 | ASOS | 55 | 50 | 82 | 29.85 | 12 | SSW | |||
| Islip | NY | 2026-05-05 02:25 | ASOS | 54 | 50 | 88 | 29.85 | 14 | SSW | |||
| Islip | NY | 2026-05-05 02:20 | ASOS | 54 | 50 | 88 | 29.86 | 12 | SSW | |||
| Islip | NY | 2026-05-05 02:15 | ASOS | 55 | 50 | 82 | 29.86 | 13 | SSW | |||
| Islip | NY | 2026-05-05 02:05 | ASOS | 55 | 50 | 82 | 29.86 | 13 | SSW | |||
| Islip | NY | 2026-05-05 02:50 | ASOS | 54 | 50 | 88 | 29.85 | 12 | SSW | |||
| Islip | NY | 2026-05-05 02:00 | ASOS | 54 | 50 | 88 | 29.86 | 13 | SSW | |||
| Islip | NY | 2026-05-05 01:56 | ASOS | 55 | 50 | 83 | 29.86 | 13 | SSW | |||
| Islip | NY | 2026-05-05 01:55 | ASOS | 55 | 50 | 82 | 29.86 | 12 | SSW | |||
| Islip | NY | 2026-05-05 01:50 | ASOS | 54 | 50 | 88 | 29.86 | 13 | SSW | |||
| Islip | NY | 2026-05-05 01:45 | ASOS | 54 | 50 | 88 | 29.86 | 12 | SSW | |||
| Islip | NY | 2026-05-05 01:40 | ASOS | 54 | 50 | 88 | 29.87 | 13 | SW | |||
| Islip | NY | 2026-05-05 02:45 | ASOS | 55 | 50 | 82 | 29.85 | 12 | SW | |||
| Islip | NY | 2026-05-05 02:55 | ASOS | 55 | 50 | 82 | 29.85 | 14 | SSW | |||
| Islip | NY | 2026-05-05 01:30 | ASOS | 55 | 50 | 82 | 29.86 | 12 | SSW | |||
| Islip | NY | 2026-05-05 03:35 | ASOS | 54 | 50 | 88 | 29.85 | 9 | SSW | |||
| Islip | NY | 2026-05-05 04:05 | ASOS | 54 | 50 | 88 | 29.85 | 9 | SSW | |||
| Islip | NY | 2026-05-05 04:00 | ASOS | 54 | 50 | 88 | 29.85 | 10 | SSW | |||
| Islip | NY | 2026-05-05 03:56 | ASOS | 54 | 50 | 86 | 29.85 | 10 | SSW | |||
| Islip | NY | 2026-05-05 03:50 | ASOS | 54 | 50 | 88 | 29.85 | 8 | SSW | |||
| Islip | NY | 2026-05-05 03:45 | ASOS | 54 | 50 | 88 | 29.85 | 9 | SSW | |||
| Islip | NY | 2026-05-05 03:40 | ASOS | 54 | 50 | 88 | 29.85 | 10 | SW | |||
| Islip | NY | 2026-05-05 03:30 | ASOS | 54 | 50 | 88 | 29.85 | 8 | SSW | |||
| Islip | NY | 2026-05-05 02:56 | ASOS | 55 | 50 | 83 | 29.85 | 13 | SW | |||
| Islip | NY | 2026-05-05 03:25 | ASOS | 54 | 50 | 88 | 29.85 | 10 | SSW | |||
| Islip | NY | 2026-05-05 03:20 | ASOS | 54 | 50 | 88 | 29.85 | 12 | SSW | |||
| Islip | NY | 2026-05-05 03:15 | ASOS | 54 | 50 | 88 | 29.85 | 12 | SSW | |||
| Islip | NY | 2026-05-05 03:10 | ASOS | 54 | 50 | 88 | 29.85 | 10 | SW | |||
| Islip | NY | 2026-05-05 03:05 | ASOS | 55 | 50 | 82 | 29.85 | 12 | SW | |||
| Islip | NY | 2026-05-05 03:00 | ASOS | 54 | 50 | 88 | 29.85 | 13 | SSW | |||
| Islip | NY | 2026-05-05 01:35 | ASOS | 55 | 50 | 82 | 29.86 | 13 | SSW | |||
| Islip | NY | 2026-05-05 01:25 | ASOS | 55 | 50 | 82 | 29.86 | 12 | SSW | |||
| Islip | NY | 2026-05-05 04:15 | ASOS | 54 | 50 | 88 | 29.85 | 9 | SSW | |||
| Islip | NY | 2026-05-04 23:00 | ASOS | 55 | 48 | 77 | 29.88 | 10 | SW | |||
| Islip | NY | 2026-05-04 23:30 | ASOS | 57 | 48 | 72 | 29.88 | 12 | SSW | |||
| Islip | NY | 2026-05-04 23:25 | ASOS | 57 | 48 | 72 | 29.88 | 13 | SSW | |||
| Islip | NY | 2026-05-04 23:20 | ASOS | 57 | 48 | 72 | 29.88 | 16 | SW | |||
| Islip | NY | 2026-05-04 23:15 | ASOS | 55 | 48 | 77 | 29.88 | 12 | SW | |||
| Islip | NY | 2026-05-04 23:10 | ASOS | 55 | 48 | 77 | 29.88 | 13 | SW | |||
| Islip | NY | 2026-05-04 23:05 | ASOS | 55 | 48 | 77 | 29.88 | 10 | SW | |||
| Islip | NY | 2026-05-04 22:55 | ASOS | 55 | 48 | 77 | 29.88 | 12 | SW | |||
| Islip | NY | 2026-05-04 23:40 | ASOS | 55 | 48 | 77 | 29.88 | 8 | SSW | |||
| Islip | NY | 2026-05-04 22:50 | ASOS | 55 | 48 | 77 | 29.88 | 12 | SW | |||
| Islip | NY | 2026-05-04 22:45 | ASOS | 55 | 48 | 77 | 29.88 | 12 | SW | |||
| Islip | NY | 2026-05-04 22:40 | ASOS | 55 | 48 | 77 | 29.88 | 14 | SW | |||
| Islip | NY | 2026-05-04 22:35 | ASOS | 55 | 48 | 77 | 29.88 | 14 | SW | |||
| Islip | NY | 2026-05-04 22:30 | ASOS | 55 | 48 | 77 | 29.88 | 12 | SW | |||
| Islip | NY | 2026-05-04 22:25 | ASOS | 55 | 48 | 77 | 29.88 | 14 | SW | |||
| Islip | NY | 2026-05-04 23:35 | ASOS | 57 | 48 | 72 | 29.88 | 9 | SSW | |||
| Islip | NY | 2026-05-04 23:45 | ASOS | 55 | 48 | 77 | 29.88 | 12 | SSW | |||
| Islip | NY | 2026-05-05 01:20 | ASOS | 55 | 50 | 82 | 29.86 | 12 | SSW | |||
| Islip | NY | 2026-05-05 00:45 | ASOS | 55 | 50 | 82 | 29.88 | 9 | SSW | |||
| Islip | NY | 2026-05-05 01:15 | ASOS | 55 | 50 | 82 | 29.87 | 13 | SSW | |||
| Islip | NY | 2026-05-05 01:05 | ASOS | 55 | 50 | 82 | 29.87 | 10 | SSW | |||
| Islip | NY | 2026-05-05 01:00 | ASOS | 55 | 50 | 82 | 29.87 | 9 | SSW | |||
| Islip | NY | 2026-05-05 00:56 | ASOS | 55 | 50 | 83 | 29.87 | 10 | SSW | |||
| Islip | NY | 2026-05-05 00:55 | ASOS | 55 | 50 | 82 | 29.87 | 12 | SSW | |||
| Islip | NY | 2026-05-05 00:50 | ASOS | 54 | 50 | 88 | 29.87 | 10 | SSW | |||
| Islip | NY | 2026-05-05 00:40 | ASOS | 55 | 50 | 82 | 29.88 | 10 | SSW | |||
| Islip | NY | 2026-05-04 23:50 | ASOS | 55 | 48 | 77 | 29.88 | 14 | SSW | |||
| Islip | NY | 2026-05-05 00:35 | ASOS | 55 | 50 | 82 | 29.88 | 10 | SSW | |||
| Islip | NY | 2026-05-05 00:30 | ASOS | 55 | 48 | 77 | 29.88 | 9 | SSW | |||
| Islip | NY | 2026-05-05 00:25 | ASOS | 55 | 48 | 77 | 29.88 | 8 | SSW | |||
| Islip | NY | 2026-05-05 00:20 | ASOS | 55 | 48 | 77 | 29.88 | 8 | S | |||
| Islip | NY | 2026-05-05 00:15 | ASOS | 55 | 50 | 82 | 29.88 | 10 | SSW | |||
| Islip | NY | 2026-05-05 00:05 | ASOS | 55 | 48 | 77 | 29.88 | 9 | S | |||
| Islip | NY | 2026-05-04 23:56 | ASOS | 56 | 49 | 77 | 29.88 | 12 | S | |||
| Islip | NY | 2026-05-05 04:10 | ASOS | 54 | 50 | 88 | 29.85 | 10 | SSW | |||
| Islip | NY | 2026-05-05 04:20 | ASOS | 54 | 52 | 94 | 29.85 | 10 | SSW | |||
| Islip | NY | 2026-05-05 10:10 | ASOS | 63 | 54 | 72 | 29.88 | 13 | S | |||
| Islip | NY | 2026-05-05 08:10 | ASOS | 57 | 52 | 82 | 29.88 | 8 | S | |||
| Islip | NY | 2026-05-05 08:40 | ASOS | 59 | 52 | 77 | 29.88 | 12 | S | |||
| Islip | NY | 2026-05-05 08:35 | ASOS | 57 | 52 | 82 | 29.88 | 10 | S | |||
| Islip | NY | 2026-05-05 08:30 | ASOS | 59 | 52 | 77 | 29.88 | 9 | S | |||
| Islip | NY | 2026-05-05 08:25 | ASOS | 57 | 52 | 82 | 29.88 | 12 | S | |||
| Islip | NY | 2026-05-05 08:20 | ASOS | 57 | 52 | 82 | 29.88 | 9 | S | |||
| Islip | NY | 2026-05-05 08:15 | ASOS | 57 | 52 | 82 | 29.88 | 8 | S | |||
| Islip | NY | 2026-05-05 08:05 | ASOS | 57 | 52 | 82 | 29.88 | 7 | SSW | |||
| Islip | NY | 2026-05-05 08:50 | ASOS | 59 | 52 | 77 | 29.88 | 8 | S | |||
| Islip | NY | 2026-05-05 08:00 | ASOS | 57 | 52 | 82 | 29.88 | 6 | SSW | |||
| Islip | NY | 2026-05-05 07:56 | ASOS | 58 | 52 | 81 | 29.88 | 6 | SW | |||
| Islip | NY | 2026-05-05 07:50 | ASOS | 57 | 52 | 82 | 29.88 | 8 | SW | |||
| Islip | NY | 2026-05-05 07:40 | ASOS | 57 | 52 | 82 | 29.88 | 8 | SSW | |||
| Islip | NY | 2026-05-05 07:35 | ASOS | 57 | 52 | 82 | 29.88 | 8 | SSW | |||
| Islip | NY | 2026-05-05 07:30 | ASOS | 57 | 52 | 82 | 29.88 | 9 | SSW | |||
| Islip | NY | 2026-05-05 08:45 | ASOS | 59 | 52 | 77 | 29.87 | 8 | S | |||
| Islip | NY | 2026-05-05 08:55 | ASOS | 57 | 52 | 82 | 29.88 | 8 | S | |||
| Islip | NY | 2026-05-05 07:20 | ASOS | 57 | 52 | 82 | 29.88 | 12 | SSW | |||
| Islip | NY | 2026-05-05 09:40 | ASOS | 63 | 54 | 72 | 29.88 | 8 | S | |||
| Islip | NY | 2026-05-05 10:05 | ASOS | 63 | 54 | 72 | 29.88 | 12 | S | |||
| Islip | NY | 2026-05-05 10:00 | ASOS | 63 | 54 | 72 | 29.88 | 10 | S | |||
| Islip | NY | 2026-05-05 09:56 | ASOS | 63 | 53 | 70 | 29.88 | 13 | SSW | |||
| Islip | NY | 2026-05-05 09:55 | ASOS | 63 | 54 | 72 | 29.88 | 14 | S | |||
| Islip | NY | 2026-05-05 09:50 | ASOS | 63 | 54 | 72 | 29.88 | 12 | S | |||
| Islip | NY | 2026-05-05 09:45 | ASOS | 63 | 54 | 72 | 29.88 | 10 | S | |||
| Islip | NY | 2026-05-05 09:35 | ASOS | 61 | 54 | 77 | 29.88 | 10 | S | |||
| Islip | NY | 2026-05-05 08:56 | ASOS | 59 | 53 | 81 | 29.88 | 9 | S | |||
| Islip | NY | 2026-05-05 09:30 | ASOS | 61 | 54 | 77 | 29.88 | 12 | S | |||
| Islip | NY | 2026-05-05 09:25 | ASOS | 61 | 52 | 72 | 29.88 | 9 | S | |||
| Islip | NY | 2026-05-05 09:20 | ASOS | 61 | 54 | 77 | 29.88 | 10 | S | |||
| Islip | NY | 2026-05-05 09:15 | ASOS | 59 | 54 | 82 | 29.88 | 8 | S | |||
| Islip | NY | 2026-05-05 09:10 | ASOS | 59 | 52 | 77 | 29.88 | 10 | S | |||
| Islip | NY | 2026-05-05 09:05 | ASOS | 57 | 54 | 88 | 29.88 | 12 | S | |||
| Islip | NY | 2026-05-05 09:00 | ASOS | 57 | 52 | 82 | 29.88 | 12 | S | |||
| Islip | NY | 2026-05-05 07:25 | ASOS | 57 | 52 | 82 | 29.88 | 8 | SW | |||
| Islip | NY | 2026-05-05 07:15 | ASOS | 55 | 52 | 88 | 29.88 | 10 | SSW | |||
| Islip | NY | 2026-05-05 04:25 | ASOS | 54 | 50 | 88 | 29.85 | 12 | SSW | |||
| Islip | NY | 2026-05-05 05:00 | ASOS | 54 | 52 | 94 | 29.85 | 8 | SSW | |||
| Islip | NY | 2026-05-05 05:35 | ASOS | 54 | 52 | 94 | 29.85 | 7 | SSW | |||
| Islip | NY | 2026-05-05 05:30 | ASOS | 54 | 52 | 94 | 29.85 | 9 | SSW | |||
| Islip | NY | 2026-05-05 05:25 | ASOS | 54 | 52 | 94 | 29.85 | 10 | SSW | |||
| Islip | NY | 2026-05-05 05:20 | ASOS | 54 | 52 | 94 | 29.85 | 9 | SSW | |||
| Islip | NY | 2026-05-05 05:10 | ASOS | 54 | 52 | 94 | 29.85 | 8 | S | |||
| Islip | NY | 2026-05-05 05:05 | ASOS | 54 | 52 | 94 | 29.85 | 7 | SSW | |||
| Islip | NY | 2026-05-05 04:56 | ASOS | 54 | 51 | 90 | 29.85 | 7 | SSW | |||
| Islip | NY | 2026-05-05 05:45 | ASOS | 54 | 52 | 94 | 29.85 | 8 | S | |||
| Islip | NY | 2026-05-05 04:55 | ASOS | 54 | 52 | 94 | 29.85 | 7 | SSW | |||
| Islip | NY | 2026-05-05 04:50 | ASOS | 54 | 52 | 94 | 29.85 | 8 | SSW | |||
| Islip | NY | 2026-05-05 04:45 | ASOS | 54 | 52 | 94 | 29.85 | 8 | SSW | |||
| Islip | NY | 2026-05-05 04:40 | ASOS | 54 | 52 | 94 | 29.85 | 8 | S | |||
| Islip | NY | 2026-05-05 04:35 | ASOS | 54 | 52 | 94 | 29.85 | 8 | S | |||
| Islip | NY | 2026-05-05 04:30 | ASOS | 54 | 52 | 94 | 29.85 | 9 | SSW | |||
| Islip | NY | 2026-05-05 05:40 | ASOS | 54 | 52 | 94 | 29.85 | 7 | SSW | |||
| Islip | NY | 2026-05-05 05:50 | ASOS | 54 | 52 | 94 | 29.85 | 9 | S | |||
| Islip | NY | 2026-05-05 07:10 | ASOS | 55 | 52 | 88 | 29.88 | 10 | SW | |||
| Islip | NY | 2026-05-05 06:40 | ASOS | 54 | 52 | 94 | 29.86 | 7 | SSW | |||
| Islip | NY | 2026-05-05 07:05 | ASOS | 55 | 52 | 88 | 29.88 | 9 | SW | |||
| Islip | NY | 2026-05-05 07:00 | ASOS | 55 | 52 | 88 | 29.87 | 6 | SSW | |||
| Islip | NY | 2026-05-05 06:56 | ASOS | 55 | 52 | 89 | 29.87 | 7 | S | |||
| Islip | NY | 2026-05-05 06:55 | ASOS | 55 | 52 | 88 | 29.87 | 8 | S | |||
| Islip | NY | 2026-05-05 06:50 | ASOS | 54 | 52 | 94 | 29.87 | 5 | SSW | |||
| Islip | NY | 2026-05-05 06:45 | ASOS | 54 | 52 | 94 | 29.86 | 7 | S | |||
| Islip | NY | 2026-05-05 06:35 | ASOS | 54 | 52 | 94 | 29.86 | 7 | SSW | |||
| Islip | NY | 2026-05-05 05:55 | ASOS | 54 | 52 | 94 | 29.85 | 9 | S | |||
| Islip | NY | 2026-05-05 06:30 | ASOS | 54 | 52 | 94 | 29.86 | 8 | S | |||
| Islip | NY | 2026-05-05 06:25 | ASOS | 54 | 52 | 94 | 29.86 | 7 | S | |||
| Islip | NY | 2026-05-05 06:20 | ASOS | 54 | 52 | 94 | 29.86 | 7 | S | |||
| Islip | NY | 2026-05-05 06:15 | ASOS | 54 | 52 | 94 | 29.86 | 8 | S | |||
| Islip | NY | 2026-05-05 06:10 | ASOS | 54 | 52 | 94 | 29.85 | 8 | S | |||
| Islip | NY | 2026-05-05 06:05 | ASOS | 54 | 52 | 94 | 29.85 | 8 | S | |||
| Islip | NY | 2026-05-05 06:00 | ASOS | 54 | 52 | 94 | 29.85 | 6 | S | |||
| Islip | NY | 2026-05-05 22:00 | ASOS | 59 | 52 | 77 | 29.89 | 14 | SSW |
data collection created in 0.046164035797119 (queried in 0.011988) rendered in: 0.0005948543548584

